NAP188 KJVW-KMCN
Flight info
| Callsign | NAP188 |
|---|---|
| Flight time | 1h 8m |
| Altitude | 19000 |
| Route | ZIPGI MEI |
| Aircraft | TBM9/L-SDFGRWY/S |
Departure
| Time | 2026-05-08 23:46 |
|---|---|
| Airport | John Bell Williams Airport (KJVW) |
Arrival
| Time | 2026-05-09 00:54 |
|---|---|
| Airport | Middle Georgia Regional Airport (KMCN) |
| Time | Latitude | Longitude | Altitude | Speed | Heading |
|---|---|---|---|---|---|
| 2026-05-08 23:31 | 32.30425 | -90.41306 | 246 ft | 0 kts | 33° |
| 2026-05-08 23:39 | 32.30449 | -90.41319 | 246 ft | 0 kts | 38° |
| 2026-05-08 23:40 | 32.30472 | -90.41330 | 246 ft | 9 kts | 313° |
| 2026-05-08 23:40 | 32.30525 | -90.41423 | 246 ft | 18 kts | 304° |
| 2026-05-08 23:40 | 32.30613 | -90.41578 | 245 ft | 27 kts | 303° |
| 2026-05-08 23:41 | 32.30732 | -90.41788 | 244 ft | 34 kts | 303° |
| 2026-05-08 23:41 | 32.30807 | -90.41835 | 244 ft | 0 kts | 46° |
| 2026-05-08 23:44 | 32.30818 | -90.41826 | 241 ft | 5 kts | 34° |
| 2026-05-08 23:44 | 32.30848 | -90.41774 | 245 ft | 12 kts | 108° |
| 2026-05-08 23:44 | 32.30778 | -90.41760 | 244 ft | 12 kts | 279° |
| 2026-05-08 23:44 | 32.30830 | -90.41742 | 245 ft | 10 kts | 88° |
| 2026-05-08 23:45 | 32.30733 | -90.41556 | 245 ft | 58 kts | 123° |
| 2026-05-08 23:45 | 32.30391 | -90.40940 | 299 ft | 114 kts | 125° |
| 2026-05-08 23:45 | 32.29966 | -90.40066 | 644 ft | 139 kts | 111° |
| 2026-05-08 23:45 | 32.30122 | -90.38809 | 793 ft | 174 kts | 61° |
| 2026-05-08 23:46 | 32.31100 | -90.37869 | 1027 ft | 195 kts | 25° |
| 2026-05-08 23:46 | 32.32471 | -90.37792 | 1259 ft | 206 kts | 347° |
| 2026-05-08 23:46 | 32.33680 | -90.38707 | 1481 ft | 212 kts | 309° |
| 2026-05-08 23:46 | 32.34522 | -90.40150 | 1743 ft | 216 kts | 300° |
| 2026-05-08 23:47 | 32.35344 | -90.41645 | 2003 ft | 218 kts | 300° |
| 2026-05-08 23:47 | 32.36192 | -90.43140 | 2256 ft | 219 kts | 300° |
| 2026-05-08 23:47 | 32.37116 | -90.44568 | 2510 ft | 221 kts | 310° |
| 2026-05-08 23:47 | 32.38325 | -90.45702 | 2763 ft | 224 kts | 328° |
| 2026-05-08 23:48 | 32.39834 | -90.46168 | 3019 ft | 227 kts | 355° |
| 2026-05-08 23:48 | 32.41410 | -90.46003 | 3274 ft | 228 kts | 14° |
| 2026-05-08 23:48 | 32.42849 | -90.45226 | 3521 ft | 228 kts | 38° |
| 2026-05-08 23:48 | 32.43757 | -90.43742 | 3772 ft | 224 kts | 75° |
| 2026-05-08 23:49 | 32.43840 | -90.41948 | 4027 ft | 217 kts | 99° |
| 2026-05-08 23:49 | 32.43674 | -90.40166 | 4262 ft | 222 kts | 99° |
| 2026-05-08 23:49 | 32.43585 | -90.38297 | 4490 ft | 232 kts | 95° |
| 2026-05-08 23:49 | 32.43539 | -90.36358 | 4730 ft | 239 kts | 95° |
| 2026-05-08 23:50 | 32.43483 | -90.34391 | 4963 ft | 244 kts | 95° |
| 2026-05-08 23:50 | 32.43418 | -90.32357 | 5296 ft | 243 kts | 95° |
| 2026-05-08 23:50 | 32.43359 | -90.30370 | 5686 ft | 240 kts | 95° |
| 2026-05-08 23:50 | 32.43301 | -90.28428 | 6076 ft | 238 kts | 95° |
| 2026-05-08 23:51 | 32.43241 | -90.26476 | 6464 ft | 236 kts | 95° |
| 2026-05-08 23:51 | 32.43180 | -90.24536 | 6835 ft | 236 kts | 94° |
| 2026-05-08 23:51 | 32.43119 | -90.22596 | 7210 ft | 236 kts | 94° |
| 2026-05-08 23:51 | 32.43058 | -90.20651 | 7593 ft | 237 kts | 94° |
| 2026-05-08 23:52 | 32.42996 | -90.18698 | 7977 ft | 238 kts | 94° |
| 2026-05-08 23:52 | 32.42933 | -90.16735 | 8367 ft | 240 kts | 93° |
| 2026-05-08 23:52 | 32.42870 | -90.14756 | 8762 ft | 241 kts | 92° |
| 2026-05-08 23:52 | 32.42806 | -90.12767 | 9163 ft | 243 kts | 92° |
| 2026-05-08 23:53 | 32.42741 | -90.10765 | 9567 ft | 244 kts | 92° |
| 2026-05-08 23:53 | 32.42697 | -90.09405 | 9841 ft | 246 kts | 92° |
| 2026-05-08 23:53 | 32.42631 | -90.07396 | 10209 ft | 248 kts | 92° |
| 2026-05-08 23:53 | 32.42563 | -90.05323 | 10589 ft | 249 kts | 91° |
| 2026-05-08 23:54 | 32.42497 | -90.03303 | 10960 ft | 251 kts | 91° |
| 2026-05-08 23:54 | 32.42429 | -90.01231 | 11342 ft | 253 kts | 91° |
| 2026-05-08 23:54 | 32.42359 | -89.99143 | 11728 ft | 254 kts | 92° |
| 2026-05-08 23:55 | 32.42218 | -89.94946 | 12511 ft | 257 kts | 91° |
| 2026-05-08 23:55 | 32.42148 | -89.92829 | 12910 ft | 258 kts | 91° |
| 2026-05-08 23:55 | 32.42076 | -89.90698 | 13317 ft | 260 kts | 91° |
| 2026-05-08 23:55 | 32.42002 | -89.88551 | 13728 ft | 262 kts | 91° |
| 2026-05-08 23:56 | 32.41928 | -89.86391 | 14097 ft | 264 kts | 92° |
| 2026-05-08 23:56 | 32.41852 | -89.84220 | 14465 ft | 266 kts | 92° |
| 2026-05-08 23:56 | 32.41777 | -89.82025 | 14840 ft | 267 kts | 92° |
| 2026-05-08 23:56 | 32.41700 | -89.79819 | 15215 ft | 269 kts | 92° |
| 2026-05-08 23:57 | 32.41622 | -89.77598 | 15602 ft | 271 kts | 92° |
| 2026-05-08 23:57 | 32.41543 | -89.75362 | 15990 ft | 272 kts | 92° |
| 2026-05-08 23:57 | 32.41464 | -89.73120 | 16382 ft | 274 kts | 92° |
| 2026-05-08 23:57 | 32.41383 | -89.70856 | 16785 ft | 276 kts | 92° |
| 2026-05-08 23:58 | 32.41302 | -89.68576 | 17189 ft | 278 kts | 93° |
| 2026-05-08 23:58 | 32.41220 | -89.66282 | 17598 ft | 280 kts | 93° |
| 2026-05-08 23:58 | 32.41136 | -89.63974 | 18010 ft | 282 kts | 93° |
| 2026-05-08 23:58 | 32.41052 | -89.61650 | 18405 ft | 283 kts | 93° |
| 2026-05-08 23:59 | 32.40968 | -89.59315 | 18766 ft | 285 kts | 94° |
| 2026-05-08 23:59 | 32.40879 | -89.56946 | 18967 ft | 296 kts | 94° |
| 2026-05-08 23:59 | 32.40782 | -89.54433 | 18975 ft | 315 kts | 94° |
| 2026-05-08 23:59 | 32.40678 | -89.51789 | 18986 ft | 328 kts | 94° |
| 2026-05-09 00:00 | 32.40574 | -89.49050 | 18990 ft | 338 kts | 94° |
| 2026-05-09 00:00 | 32.40468 | -89.46244 | 18990 ft | 344 kts | 94° |
| 2026-05-09 00:00 | 32.40363 | -89.43390 | 18989 ft | 349 kts | 94° |
| 2026-05-09 00:00 | 32.40253 | -89.40502 | 18990 ft | 352 kts | 94° |
| 2026-05-09 00:01 | 32.40141 | -89.37597 | 18993 ft | 354 kts | 94° |
| 2026-05-09 00:01 | 32.40029 | -89.34678 | 18994 ft | 356 kts | 94° |
| 2026-05-09 00:01 | 32.39917 | -89.31753 | 18993 ft | 357 kts | 94° |
| 2026-05-09 00:01 | 32.39803 | -89.28818 | 18993 ft | 357 kts | 94° |
| 2026-05-09 00:02 | 32.39688 | -89.25880 | 18989 ft | 358 kts | 94° |
| 2026-05-09 00:02 | 32.39574 | -89.22981 | 18994 ft | 358 kts | 93° |
| 2026-05-09 00:02 | 32.39456 | -89.20001 | 18993 ft | 358 kts | 93° |
| 2026-05-09 00:02 | 32.39338 | -89.17062 | 18992 ft | 358 kts | 93° |
| 2026-05-09 00:03 | 32.39222 | -89.14159 | 18987 ft | 358 kts | 93° |
| 2026-05-09 00:03 | 32.39103 | -89.11182 | 18986 ft | 358 kts | 93° |
| 2026-05-09 00:03 | 32.38985 | -89.08277 | 18992 ft | 358 kts | 93° |
| 2026-05-09 00:03 | 32.38864 | -89.05340 | 18991 ft | 358 kts | 93° |
| 2026-05-09 00:04 | 32.38745 | -89.02403 | 18986 ft | 358 kts | 93° |
| 2026-05-09 00:04 | 32.38624 | -88.99465 | 18985 ft | 358 kts | 94° |
| 2026-05-09 00:04 | 32.38501 | -88.96524 | 18983 ft | 358 kts | 93° |
| 2026-05-09 00:04 | 32.38380 | -88.93586 | 18982 ft | 358 kts | 93° |
| 2026-05-09 00:05 | 32.38256 | -88.90644 | 18982 ft | 358 kts | 94° |
| 2026-05-09 00:05 | 32.38132 | -88.87707 | 18981 ft | 357 kts | 93° |
| 2026-05-09 00:05 | 32.38008 | -88.84769 | 18986 ft | 357 kts | 93° |
| 2026-05-09 00:05 | 32.37883 | -88.81838 | 18986 ft | 357 kts | 93° |
| 2026-05-09 00:06 | 32.37933 | -88.78910 | 18980 ft | 355 kts | 83° |
| 2026-05-09 00:06 | 32.38204 | -88.76007 | 18988 ft | 355 kts | 83° |
| 2026-05-09 00:06 | 32.38436 | -88.73090 | 18991 ft | 356 kts | 84° |
| 2026-05-09 00:06 | 32.38659 | -88.70176 | 18988 ft | 356 kts | 83° |
| 2026-05-09 00:07 | 32.38899 | -88.67253 | 18990 ft | 356 kts | 83° |
| 2026-05-09 00:07 | 32.39144 | -88.64340 | 18991 ft | 356 kts | 83° |
| 2026-05-09 00:07 | 32.39380 | -88.61420 | 18990 ft | 356 kts | 83° |
| 2026-05-09 00:07 | 32.39613 | -88.58504 | 18981 ft | 356 kts | 83° |
| 2026-05-09 00:08 | 32.39848 | -88.55589 | 18989 ft | 356 kts | 83° |
| 2026-05-09 00:08 | 32.40084 | -88.52677 | 18990 ft | 355 kts | 83° |
| 2026-05-09 00:08 | 32.40319 | -88.49768 | 18986 ft | 355 kts | 83° |
| 2026-05-09 00:08 | 32.40551 | -88.46856 | 18985 ft | 355 kts | 84° |
| 2026-05-09 00:09 | 32.40783 | -88.43947 | 18993 ft | 356 kts | 84° |
| 2026-05-09 00:09 | 32.41014 | -88.41038 | 18991 ft | 356 kts | 84° |
| 2026-05-09 00:09 | 32.41243 | -88.38154 | 18990 ft | 356 kts | 84° |
| 2026-05-09 00:09 | 32.41473 | -88.35236 | 18992 ft | 356 kts | 84° |
| 2026-05-09 00:10 | 32.41706 | -88.32279 | 18989 ft | 356 kts | 84° |
| 2026-05-09 00:10 | 32.41932 | -88.29399 | 18989 ft | 356 kts | 84° |
| 2026-05-09 00:10 | 32.42162 | -88.26485 | 18986 ft | 356 kts | 84° |
| 2026-05-09 00:10 | 32.42391 | -88.23565 | 18993 ft | 356 kts | 84° |
| 2026-05-09 00:11 | 32.42617 | -88.20649 | 18989 ft | 356 kts | 84° |
| 2026-05-09 00:11 | 32.42843 | -88.17750 | 19163 ft | 350 kts | 84° |
| 2026-05-09 00:11 | 32.43067 | -88.14898 | 19350 ft | 347 kts | 84° |
| 2026-05-09 00:11 | 32.43287 | -88.12061 | 19532 ft | 344 kts | 84° |
| 2026-05-09 00:12 | 32.43502 | -88.09247 | 19742 ft | 342 kts | 84° |
| 2026-05-09 00:12 | 32.43717 | -88.06470 | 20086 ft | 336 kts | 84° |
| 2026-05-09 00:12 | 32.43929 | -88.03734 | 20441 ft | 332 kts | 84° |
| 2026-05-09 00:12 | 32.44137 | -88.01022 | 20804 ft | 330 kts | 84° |
| 2026-05-09 00:13 | 32.44342 | -87.98313 | 21001 ft | 335 kts | 84° |
| 2026-05-09 00:13 | 32.44550 | -87.95523 | 21000 ft | 345 kts | 84° |
| 2026-05-09 00:13 | 32.44764 | -87.92657 | 21003 ft | 353 kts | 84° |
| 2026-05-09 00:13 | 32.44983 | -87.89746 | 21008 ft | 357 kts | 84° |
| 2026-05-09 00:14 | 32.45206 | -87.86800 | 21011 ft | 361 kts | 84° |
| 2026-05-09 00:14 | 32.45429 | -87.83826 | 21021 ft | 364 kts | 84° |
| 2026-05-09 00:14 | 32.45651 | -87.80832 | 21021 ft | 365 kts | 84° |
| 2026-05-09 00:14 | 32.45875 | -87.77828 | 21022 ft | 366 kts | 84° |
| 2026-05-09 00:15 | 32.46099 | -87.74823 | 21020 ft | 367 kts | 85° |
| 2026-05-09 00:15 | 32.46322 | -87.71802 | 21019 ft | 368 kts | 85° |
| 2026-05-09 00:15 | 32.46544 | -87.68790 | 21020 ft | 367 kts | 85° |
| 2026-05-09 00:15 | 32.46765 | -87.65781 | 21019 ft | 366 kts | 85° |
| 2026-05-09 00:16 | 32.46983 | -87.62820 | 21016 ft | 366 kts | 85° |
| 2026-05-09 00:16 | 32.47202 | -87.59823 | 21013 ft | 365 kts | 85° |
| 2026-05-09 00:16 | 32.47420 | -87.56821 | 21012 ft | 365 kts | 85° |
| 2026-05-09 00:16 | 32.47637 | -87.53828 | 21011 ft | 365 kts | 85° |
| 2026-05-09 00:17 | 32.47854 | -87.50832 | 21007 ft | 365 kts | 85° |
| 2026-05-09 00:17 | 32.48070 | -87.47841 | 21005 ft | 365 kts | 85° |
| 2026-05-09 00:17 | 32.48284 | -87.44849 | 21003 ft | 365 kts | 85° |
| 2026-05-09 00:17 | 32.48499 | -87.41854 | 21004 ft | 365 kts | 85° |
| 2026-05-09 00:18 | 32.48713 | -87.38861 | 20986 ft | 365 kts | 85° |
| 2026-05-09 00:18 | 32.48926 | -87.35869 | 20986 ft | 365 kts | 85° |
| 2026-05-09 00:18 | 32.49137 | -87.32877 | 20986 ft | 365 kts | 85° |
| 2026-05-09 00:18 | 32.49348 | -87.29884 | 20987 ft | 365 kts | 85° |
| 2026-05-09 00:19 | 32.49559 | -87.26899 | 20989 ft | 365 kts | 85° |
| 2026-05-09 00:19 | 32.49769 | -87.23899 | 20962 ft | 365 kts | 85° |
| 2026-05-09 00:19 | 32.49979 | -87.20901 | 20963 ft | 365 kts | 85° |
| 2026-05-09 00:19 | 32.50187 | -87.17899 | 20963 ft | 365 kts | 85° |
| 2026-05-09 00:20 | 32.50397 | -87.14894 | 20964 ft | 365 kts | 85° |
| 2026-05-09 00:20 | 32.50604 | -87.11902 | 20965 ft | 365 kts | 85° |
| 2026-05-09 00:20 | 32.50810 | -87.08901 | 20975 ft | 366 kts | 86° |
| 2026-05-09 00:20 | 32.51017 | -87.05893 | 20974 ft | 366 kts | 86° |
| 2026-05-09 00:21 | 32.51223 | -87.02888 | 20970 ft | 366 kts | 85° |
| 2026-05-09 00:21 | 32.51427 | -86.99888 | 20969 ft | 366 kts | 86° |
| 2026-05-09 00:21 | 32.51633 | -86.96881 | 20970 ft | 366 kts | 85° |
| 2026-05-09 00:21 | 32.51836 | -86.93877 | 20983 ft | 366 kts | 86° |
| 2026-05-09 00:22 | 32.52038 | -86.90877 | 20986 ft | 365 kts | 86° |
| 2026-05-09 00:22 | 32.52240 | -86.87871 | 20985 ft | 366 kts | 86° |
| 2026-05-09 00:22 | 32.52441 | -86.84871 | 20984 ft | 366 kts | 86° |
| 2026-05-09 00:22 | 32.52642 | -86.81866 | 20986 ft | 366 kts | 86° |
| 2026-05-09 00:23 | 32.52843 | -86.78856 | 20992 ft | 366 kts | 86° |
| 2026-05-09 00:23 | 32.53042 | -86.75846 | 20992 ft | 366 kts | 86° |
| 2026-05-09 00:23 | 32.53240 | -86.72843 | 20989 ft | 366 kts | 86° |
| 2026-05-09 00:23 | 32.53438 | -86.69833 | 20987 ft | 366 kts | 86° |
| 2026-05-09 00:24 | 32.53633 | -86.66870 | 20982 ft | 366 kts | 86° |
| 2026-05-09 00:24 | 32.53830 | -86.63863 | 20981 ft | 366 kts | 86° |
| 2026-05-09 00:24 | 32.54025 | -86.60862 | 20976 ft | 366 kts | 86° |
| 2026-05-09 00:24 | 32.54221 | -86.57854 | 20976 ft | 366 kts | 86° |
| 2026-05-09 00:25 | 32.54414 | -86.54846 | 20972 ft | 366 kts | 86° |
| 2026-05-09 00:25 | 32.54607 | -86.51846 | 20969 ft | 365 kts | 86° |
| 2026-05-09 00:25 | 32.54800 | -86.48844 | 20961 ft | 365 kts | 86° |
| 2026-05-09 00:25 | 32.54992 | -86.45848 | 20963 ft | 365 kts | 86° |
| 2026-05-09 00:26 | 32.55183 | -86.42848 | 20960 ft | 365 kts | 86° |
| 2026-05-09 00:26 | 32.55374 | -86.39848 | 20962 ft | 365 kts | 86° |
| 2026-05-09 00:26 | 32.55562 | -86.36849 | 20959 ft | 365 kts | 87° |
| 2026-05-09 00:26 | 32.55750 | -86.33854 | 20960 ft | 365 kts | 86° |
| 2026-05-09 00:27 | 32.55939 | -86.30854 | 20962 ft | 365 kts | 86° |
| 2026-05-09 00:27 | 32.56126 | -86.27860 | 20963 ft | 365 kts | 86° |
| 2026-05-09 00:27 | 32.56312 | -86.24823 | 20593 ft | 376 kts | 86° |
| 2026-05-09 00:27 | 32.56496 | -86.21690 | 20134 ft | 384 kts | 86° |
| 2026-05-09 00:28 | 32.56687 | -86.18510 | 19671 ft | 389 kts | 86° |
| 2026-05-09 00:28 | 32.56889 | -86.15303 | 19205 ft | 392 kts | 85° |
| 2026-05-09 00:28 | 32.57093 | -86.12079 | 18747 ft | 393 kts | 85° |
| 2026-05-09 00:28 | 32.57288 | -86.08848 | 18291 ft | 393 kts | 85° |
| 2026-05-09 00:29 | 32.57483 | -86.05623 | 17772 ft | 391 kts | 85° |
| 2026-05-09 00:29 | 32.57677 | -86.02413 | 17254 ft | 388 kts | 85° |
| 2026-05-09 00:29 | 32.57867 | -85.99243 | 16748 ft | 384 kts | 85° |
| 2026-05-09 00:29 | 32.58055 | -85.96099 | 16248 ft | 380 kts | 85° |
| 2026-05-09 00:30 | 32.58240 | -85.92987 | 15756 ft | 376 kts | 85° |
| 2026-05-09 00:30 | 32.58423 | -85.89916 | 15262 ft | 371 kts | 85° |
| 2026-05-09 00:30 | 32.58602 | -85.86885 | 14801 ft | 367 kts | 86° |
| 2026-05-09 00:30 | 32.58778 | -85.83885 | 14332 ft | 362 kts | 86° |
| 2026-05-09 00:31 | 32.58953 | -85.80924 | 13877 ft | 357 kts | 86° |
| 2026-05-09 00:31 | 32.59123 | -85.78008 | 13366 ft | 353 kts | 86° |
| 2026-05-09 00:31 | 32.59290 | -85.75119 | 12857 ft | 350 kts | 86° |
| 2026-05-09 00:31 | 32.59458 | -85.72253 | 12356 ft | 346 kts | 86° |
| 2026-05-09 00:32 | 32.59621 | -85.69418 | 11862 ft | 344 kts | 86° |
| 2026-05-09 00:32 | 32.59781 | -85.66636 | 11379 ft | 341 kts | 86° |
| 2026-05-09 00:32 | 32.59941 | -85.63850 | 10901 ft | 338 kts | 87° |
| 2026-05-09 00:32 | 32.60098 | -85.61075 | 10427 ft | 335 kts | 87° |
| 2026-05-09 00:33 | 32.60258 | -85.58296 | 10048 ft | 330 kts | 87° |
| 2026-05-09 00:33 | 32.60410 | -85.55675 | 10038 ft | 317 kts | 87° |
| 2026-05-09 00:33 | 32.60560 | -85.53066 | 10033 ft | 309 kts | 87° |
| 2026-05-09 00:33 | 32.60701 | -85.50572 | 10028 ft | 306 kts | 87° |
| 2026-05-09 00:34 | 32.60846 | -85.48070 | 10026 ft | 303 kts | 87° |
| 2026-05-09 00:34 | 32.60985 | -85.45579 | 10027 ft | 302 kts | 87° |
| 2026-05-09 00:34 | 32.61119 | -85.43101 | 10026 ft | 301 kts | 87° |
| 2026-05-09 00:34 | 32.61257 | -85.40616 | 10026 ft | 302 kts | 87° |
| 2026-05-09 00:35 | 32.61397 | -85.38132 | 10026 ft | 302 kts | 87° |
| 2026-05-09 00:35 | 32.61531 | -85.35648 | 10027 ft | 302 kts | 87° |
| 2026-05-09 00:35 | 32.61667 | -85.33163 | 10029 ft | 302 kts | 87° |
| 2026-05-09 00:35 | 32.61804 | -85.30676 | 10012 ft | 302 kts | 87° |
| 2026-05-09 00:36 | 32.61938 | -85.28188 | 10012 ft | 302 kts | 88° |
| 2026-05-09 00:36 | 32.61924 | -85.25705 | 10013 ft | 301 kts | 92° |
| 2026-05-09 00:36 | 32.62020 | -85.23215 | 10009 ft | 302 kts | 84° |
| 2026-05-09 00:36 | 32.62333 | -85.20752 | 10015 ft | 302 kts | 82° |
| 2026-05-09 00:37 | 32.62576 | -85.18279 | 10018 ft | 302 kts | 86° |
| 2026-05-09 00:37 | 32.62673 | -85.15786 | 10020 ft | 302 kts | 89° |
| 2026-05-09 00:37 | 32.62766 | -85.13296 | 10017 ft | 302 kts | 88° |
| 2026-05-09 00:37 | 32.62912 | -85.10812 | 10014 ft | 302 kts | 87° |
| 2026-05-09 00:38 | 32.63056 | -85.08322 | 10014 ft | 302 kts | 87° |
| 2026-05-09 00:38 | 32.63182 | -85.05833 | 10017 ft | 302 kts | 88° |
| 2026-05-09 00:38 | 32.63312 | -85.03347 | 10018 ft | 302 kts | 88° |
| 2026-05-09 00:38 | 32.63444 | -85.00851 | 10016 ft | 303 kts | 88° |
| 2026-05-09 00:39 | 32.63573 | -84.98356 | 10017 ft | 303 kts | 88° |
| 2026-05-09 00:39 | 32.63703 | -84.95855 | 10017 ft | 304 kts | 88° |
| 2026-05-09 00:39 | 32.63833 | -84.93352 | 10018 ft | 304 kts | 88° |
| 2026-05-09 00:39 | 32.63961 | -84.90854 | 10016 ft | 304 kts | 88° |
| 2026-05-09 00:40 | 32.64047 | -84.89199 | 10016 ft | 304 kts | 88° |
| 2026-05-09 00:40 | 32.64176 | -84.86698 | 10016 ft | 303 kts | 88° |
| 2026-05-09 00:40 | 32.64303 | -84.84199 | 10002 ft | 304 kts | 88° |
| 2026-05-09 00:41 | 32.64558 | -84.79189 | 9996 ft | 304 kts | 88° |
| 2026-05-09 00:41 | 32.64685 | -84.76688 | 9994 ft | 304 kts | 88° |
| 2026-05-09 00:41 | 32.64809 | -84.74188 | 9993 ft | 304 kts | 88° |
| 2026-05-09 00:41 | 32.64934 | -84.71686 | 9989 ft | 304 kts | 88° |
| 2026-05-09 00:42 | 32.65059 | -84.69184 | 9987 ft | 304 kts | 88° |
| 2026-05-09 00:42 | 32.65184 | -84.66683 | 9985 ft | 304 kts | 88° |
| 2026-05-09 00:42 | 32.65309 | -84.64178 | 9988 ft | 304 kts | 88° |
| 2026-05-09 00:42 | 32.65432 | -84.61667 | 9987 ft | 304 kts | 88° |
| 2026-05-09 00:43 | 32.65554 | -84.59159 | 9988 ft | 305 kts | 88° |
| 2026-05-09 00:43 | 32.65677 | -84.56649 | 9983 ft | 305 kts | 88° |
| 2026-05-09 00:43 | 32.65799 | -84.54134 | 9980 ft | 305 kts | 88° |
| 2026-05-09 00:43 | 32.65922 | -84.51624 | 9979 ft | 305 kts | 88° |
| 2026-05-09 00:44 | 32.66043 | -84.49112 | 9977 ft | 305 kts | 88° |
| 2026-05-09 00:44 | 32.66163 | -84.46602 | 9980 ft | 305 kts | 88° |
| 2026-05-09 00:44 | 32.66283 | -84.44088 | 9978 ft | 305 kts | 88° |
| 2026-05-09 00:44 | 32.66404 | -84.41579 | 9978 ft | 305 kts | 88° |
| 2026-05-09 00:45 | 32.66523 | -84.39068 | 9981 ft | 305 kts | 88° |
| 2026-05-09 00:45 | 32.66642 | -84.36551 | 9990 ft | 305 kts | 88° |
| 2026-05-09 00:45 | 32.66760 | -84.34034 | 9988 ft | 305 kts | 88° |
| 2026-05-09 00:45 | 32.66878 | -84.31519 | 9989 ft | 305 kts | 88° |
| 2026-05-09 00:46 | 32.66993 | -84.29029 | 9792 ft | 311 kts | 88° |
| 2026-05-09 00:46 | 32.67102 | -84.26407 | 9088 ft | 327 kts | 89° |
| 2026-05-09 00:46 | 32.67221 | -84.23735 | 8285 ft | 319 kts | 88° |
| 2026-05-09 00:46 | 32.67351 | -84.21134 | 7508 ft | 313 kts | 88° |
| 2026-05-09 00:47 | 32.67474 | -84.18566 | 6745 ft | 310 kts | 89° |
| 2026-05-09 00:47 | 32.67586 | -84.16034 | 5971 ft | 305 kts | 89° |
| 2026-05-09 00:47 | 32.67697 | -84.13534 | 5180 ft | 300 kts | 89° |
| 2026-05-09 00:47 | 32.67811 | -84.11080 | 4395 ft | 296 kts | 89° |
| 2026-05-09 00:48 | 32.67919 | -84.08670 | 3601 ft | 289 kts | 89° |
| 2026-05-09 00:48 | 32.68026 | -84.06323 | 3002 ft | 278 kts | 89° |
| 2026-05-09 00:48 | 32.68131 | -84.04132 | 2982 ft | 256 kts | 89° |
| 2026-05-09 00:48 | 32.68237 | -84.02065 | 2976 ft | 247 kts | 90° |
| 2026-05-09 00:49 | 32.68325 | -84.00058 | 2978 ft | 241 kts | 90° |
| 2026-05-09 00:49 | 32.68406 | -83.98079 | 2983 ft | 239 kts | 90° |
| 2026-05-09 00:49 | 32.68490 | -83.96109 | 2984 ft | 238 kts | 90° |
| 2026-05-09 00:49 | 32.68576 | -83.94154 | 2988 ft | 237 kts | 90° |
| 2026-05-09 00:50 | 32.68660 | -83.92196 | 2989 ft | 237 kts | 90° |
| 2026-05-09 00:50 | 32.68745 | -83.90246 | 2992 ft | 236 kts | 90° |
| 2026-05-09 00:50 | 32.68830 | -83.88296 | 2979 ft | 236 kts | 90° |
| 2026-05-09 00:50 | 32.68913 | -83.86349 | 2981 ft | 236 kts | 90° |
| 2026-05-09 00:51 | 32.68997 | -83.84402 | 2983 ft | 236 kts | 90° |
| 2026-05-09 00:51 | 32.69082 | -83.82454 | 2984 ft | 236 kts | 90° |
| 2026-05-09 00:51 | 32.69164 | -83.80530 | 2985 ft | 236 kts | 89° |
| 2026-05-09 00:51 | 32.69457 | -83.78615 | 2987 ft | 238 kts | 78° |
| 2026-05-09 00:52 | 32.69915 | -83.76729 | 2993 ft | 238 kts | 76° |
| 2026-05-09 00:52 | 32.70382 | -83.74844 | 2993 ft | 238 kts | 76° |
| 2026-05-09 00:52 | 32.70864 | -83.72955 | 2997 ft | 239 kts | 73° |
| 2026-05-09 00:52 | 32.71521 | -83.71160 | 3096 ft | 222 kts | 69° |
| 2026-05-09 00:53 | 32.71987 | -83.69478 | 2841 ft | 207 kts | 84° |
| 2026-05-09 00:53 | 32.71937 | -83.67874 | 1769 ft | 189 kts | 126° |
| 2026-05-09 00:53 | 32.71123 | -83.66842 | 1151 ft | 166 kts | 137° |
| 2026-05-09 00:53 | 32.70354 | -83.65813 | 582 ft | 158 kts | 129° |
| 2026-05-09 00:54 | 32.69702 | -83.64891 | 366 ft | 134 kts | 130° |
| 2026-05-09 00:54 | 32.69308 | -83.64342 | 351 ft | 29 kts | 137° |
| 2026-05-09 00:54 | 32.69299 | -83.64323 | 355 ft | 13 kts | 68° |
| 2026-05-09 00:54 | 32.69320 | -83.64283 | 354 ft | 3 kts | 49° |
| 2026-05-09 00:55 | 32.69332 | -83.64269 | 356 ft | 1 kts | 37° |
| 2026-05-09 00:55 | 32.69333 | -83.64269 | 356 ft | 0 kts | 36° |
| 2026-05-09 00:57 | 32.69339 | -83.64264 | 354 ft | 6 kts | 34° |
| 2026-05-09 00:57 | 32.69392 | -83.64220 | 354 ft | 11 kts | 44° |
| 2026-05-09 00:58 | 32.69464 | -83.64152 | 355 ft | 15 kts | 17° |
| 2026-05-09 00:58 | 32.69521 | -83.64169 | 359 ft | 0 kts | 333° |